createdAt,value
2019-03-04T00:01:16.963Z,11.20
2019-03-04T00:03:46.080Z,11.20
2019-03-04T00:06:15.231Z,11.20
2019-03-04T00:08:44.407Z,11.20
2019-03-04T00:11:13.573Z,11.30
2019-03-04T00:13:42.743Z,11.40
2019-03-04T00:16:12.079Z,11.40
2019-03-04T00:18:41.251Z,11.40
2019-03-04T00:21:10.602Z,11.40
2019-03-04T00:23:39.832Z,11.40
2019-03-04T00:26:08.929Z,11.50
2019-03-04T00:28:38.091Z,11.50
2019-03-04T00:31:07.188Z,11.50
2019-03-04T00:33:36.528Z,11.50
2019-03-04T00:36:05.639Z,11.60
2019-03-04T00:38:34.734Z,11.70
2019-03-04T00:41:03.826Z,11.70
2019-03-04T00:43:32.925Z,11.70
2019-03-04T00:46:04.059Z,11.70
2019-03-04T00:48:33.132Z,11.70
2019-03-04T00:51:04.967Z,11.70
2019-03-04T00:53:34.052Z,11.70
2019-03-04T00:56:03.244Z,11.80
2019-03-04T00:58:32.424Z,11.80
2019-03-04T01:01:01.737Z,11.80
2019-03-04T01:03:31.325Z,11.80
2019-03-04T01:06:00.372Z,11.80
2019-03-04T01:08:29.640Z,11.80
2019-03-04T01:10:58.904Z,11.80
2019-03-04T01:13:28.021Z,11.80
2019-03-04T01:15:57.153Z,11.80
2019-03-04T01:18:26.293Z,11.80
2019-03-04T01:20:55.356Z,11.80
2019-03-04T01:23:24.439Z,11.80
2019-03-04T01:25:53.496Z,11.80
2019-03-04T01:28:23.500Z,11.90
2019-03-04T01:30:52.594Z,11.90
2019-03-04T01:33:21.834Z,11.90
2019-03-04T01:35:50.885Z,11.90
2019-03-04T01:38:19.902Z,11.90
2019-03-04T01:40:48.903Z,11.90
2019-03-04T01:43:17.992Z,11.90
2019-03-04T01:45:47.065Z,11.90
2019-03-04T01:48:16.103Z,11.90
2019-03-04T01:50:45.107Z,11.90
2019-03-04T01:53:14.213Z,11.90
2019-03-04T01:55:43.225Z,11.90
2019-03-04T01:58:12.747Z,11.90
2019-03-04T02:00:41.938Z,11.90
2019-03-04T02:03:11.023Z,11.90
2019-03-04T02:05:40.083Z,11.90
2019-03-04T02:08:11.760Z,11.90
2019-03-04T02:10:40.823Z,11.90
2019-03-04T02:13:11.804Z,11.90
2019-03-04T02:15:41.001Z,11.90
2019-03-04T02:18:13.540Z,11.90
2019-03-04T02:20:42.623Z,11.90
2019-03-04T02:23:11.681Z,11.90
2019-03-04T02:26:11.904Z,11.90
2019-03-04T02:28:41.031Z,11.90
2019-03-04T02:31:12.812Z,11.90
2019-03-04T02:33:41.912Z,11.90
2019-03-04T02:36:11.224Z,11.90
2019-03-04T02:38:40.476Z,11.90
2019-03-04T02:41:11.085Z,11.90
2019-03-04T02:43:40.269Z,12.00
2019-03-04T02:46:10.892Z,12.00
2019-03-04T02:48:39.958Z,12.00
2019-03-04T02:51:09.095Z,12.00
2019-03-04T02:53:38.285Z,12.00
2019-03-04T02:56:07.346Z,12.00
2019-03-04T02:58:36.510Z,12.00
2019-03-04T03:01:05.690Z,11.90
2019-03-04T03:03:34.833Z,11.90
2019-03-04T03:06:03.951Z,11.90
2019-03-04T03:08:33.056Z,11.90
2019-03-04T03:11:02.218Z,11.80
2019-03-04T03:13:31.347Z,11.80
2019-03-04T03:16:02.696Z,11.90
2019-03-04T03:18:32.002Z,11.90
2019-03-04T03:21:01.148Z,11.80
2019-03-04T03:23:30.236Z,11.80
2019-03-04T03:25:59.329Z,11.80
2019-03-04T03:28:28.537Z,11.80
2019-03-04T03:30:57.709Z,11.70
2019-03-04T03:33:26.981Z,11.70
2019-03-04T03:35:56.260Z,11.70
2019-03-04T03:38:25.655Z,11.70
2019-03-04T03:40:54.778Z,11.70
2019-03-04T03:43:23.966Z,11.70
2019-03-04T03:45:53.107Z,11.70
2019-03-04T03:48:22.300Z,11.60
2019-03-04T03:50:51.502Z,11.60
2019-03-04T03:53:20.690Z,11.60
2019-03-04T03:55:49.782Z,11.60
2019-03-04T03:58:18.853Z,11.60
2019-03-04T04:00:47.914Z,11.50
2019-03-04T04:03:17.271Z,11.50
2019-03-04T04:05:46.485Z,11.60
2019-03-04T04:08:16.720Z,11.60
2019-03-04T04:10:45.830Z,11.60
2019-03-04T04:13:14.909Z,11.60
2019-03-04T04:15:44.201Z,11.50
2019-03-04T04:18:13.310Z,11.50
2019-03-04T04:20:42.854Z,11.40
2019-03-04T04:23:12.147Z,11.50
2019-03-04T04:25:41.339Z,11.50
2019-03-04T04:28:10.766Z,11.40
2019-03-04T04:30:40.394Z,11.50
2019-03-04T04:33:09.825Z,11.50
2019-03-04T04:35:39.015Z,11.50
2019-03-04T04:38:08.140Z,11.50
2019-03-04T04:40:37.217Z,11.50
2019-03-04T04:43:06.324Z,11.60
2019-03-04T04:45:35.431Z,11.60
2019-03-04T04:48:04.534Z,11.70
2019-03-04T04:50:33.623Z,11.70
2019-03-04T04:53:02.783Z,11.70
2019-03-04T04:55:31.762Z,11.80
2019-03-04T04:58:00.859Z,11.80
2019-03-04T05:00:31.313Z,11.90
2019-03-04T05:03:00.604Z,11.90
2019-03-04T05:05:29.633Z,12.00
2019-03-04T05:08:01.733Z,12.00
2019-03-04T05:10:30.891Z,12.10
2019-03-04T05:12:59.942Z,12.20
2019-03-04T05:15:29.081Z,12.30
2019-03-04T05:17:58.155Z,12.30
2019-03-04T05:20:27.276Z,12.20
2019-03-04T05:22:56.452Z,12.20
2019-03-04T05:25:25.636Z,12.30
2019-03-04T05:27:54.645Z,12.40
2019-03-04T05:30:26.776Z,12.40
2019-03-04T05:32:55.993Z,12.40
2019-03-04T05:35:25.156Z,12.40
2019-03-04T05:37:54.304Z,12.40
2019-03-04T05:40:26.446Z,12.40
2019-03-04T05:42:55.667Z,12.40
2019-03-04T05:45:24.968Z,12.40
2019-03-04T05:47:54.085Z,12.50
2019-03-04T05:50:23.376Z,12.50
2019-03-04T05:52:52.604Z,12.50
2019-03-04T05:55:21.629Z,12.60
2019-03-04T05:57:50.878Z,12.60
2019-03-04T06:00:20.858Z,12.60
2019-03-04T06:02:50.111Z,12.60
2019-03-04T06:05:19.269Z,12.60
2019-03-04T06:07:57.797Z,12.70
2019-03-04T06:10:28.627Z,12.80
2019-03-04T06:12:58.986Z,12.90
2019-03-04T06:15:28.501Z,12.90
2019-03-04T06:17:57.622Z,13.00
2019-03-04T06:20:28.723Z,13.00
2019-03-04T06:22:57.551Z,13.10
2019-03-04T06:25:31.101Z,13.00
2019-03-04T06:28:00.241Z,13.10
2019-03-04T06:30:29.431Z,13.10
2019-03-04T06:32:58.547Z,13.20
2019-03-04T06:35:28.200Z,13.10
2019-03-04T06:37:57.310Z,13.10
2019-03-04T06:40:26.658Z,13.10
2019-03-04T06:42:56.096Z,13.10
2019-03-04T06:45:25.947Z,13.10
2019-03-04T06:47:55.147Z,13.10
2019-03-04T06:50:47.120Z,13.10
2019-03-04T06:53:32.060Z,13.10
2019-03-04T06:56:18.887Z,13.10
2019-03-04T06:58:49.876Z,13.10
2019-03-04T07:01:30.568Z,13.10
2019-03-04T07:04:05.537Z,13.10
2019-03-04T07:06:34.866Z,13.20
2019-03-04T07:09:13.677Z,13.10
2019-03-04T07:11:44.130Z,13.10
2019-03-04T07:14:13.655Z,13.10
2019-03-04T07:16:43.076Z,13.10
2019-03-04T07:19:20.175Z,13.10
2019-03-04T07:21:49.885Z,12.90
2019-03-04T07:24:19.507Z,10.80
2019-03-04T07:26:49.523Z,9.20
2019-03-04T07:29:18.992Z,8.00
2019-03-04T07:31:48.316Z,7.50
2019-03-04T07:34:17.631Z,7.30
2019-03-04T07:36:46.913Z,7.30
2019-03-04T07:39:17.621Z,7.20
2019-03-04T07:41:51.509Z,7.30
2019-03-04T07:44:21.183Z,7.30
2019-03-04T07:46:50.532Z,7.40
2019-03-04T07:49:19.732Z,7.40
2019-03-04T07:51:49.282Z,7.40
2019-03-04T07:54:18.874Z,7.50
2019-03-04T07:56:48.226Z,7.50
2019-03-04T07:59:17.400Z,7.50
2019-03-04T08:01:46.488Z,7.50
2019-03-04T08:04:15.730Z,7.60
2019-03-04T08:06:44.810Z,7.60
2019-03-04T08:09:56.892Z,7.60
2019-03-04T08:12:53.272Z,7.70
2019-03-04T08:15:22.530Z,7.70
2019-03-04T08:17:51.653Z,7.80
2019-03-04T08:20:20.783Z,7.90
2019-03-04T08:22:49.857Z,8.00
2019-03-04T08:25:19.959Z,8.10
2019-03-04T08:27:49.155Z,8.10
2019-03-04T08:30:20.286Z,8.10
2019-03-04T08:32:49.660Z,8.30
2019-03-04T08:35:18.842Z,8.30
2019-03-04T08:37:47.995Z,8.40
2019-03-04T08:40:17.396Z,8.60
2019-03-04T08:42:46.585Z,8.60
2019-03-04T08:45:17.741Z,8.70
2019-03-04T08:47:49.065Z,8.80
2019-03-04T08:50:18.252Z,8.80
2019-03-04T08:52:47.391Z,8.90
2019-03-04T08:55:17.305Z,9.10
2019-03-04T08:57:46.675Z,9.20
2019-03-04T09:00:19.018Z,9.60
2019-03-04T09:02:52.334Z,10.20
2019-03-04T09:05:21.511Z,10.80
2019-03-04T09:07:50.562Z,10.80
2019-03-04T09:10:22.051Z,10.60
2019-03-04T09:12:51.317Z,10.40
2019-03-04T09:15:20.653Z,10.40
2019-03-04T09:17:49.740Z,10.30
2019-03-04T09:20:19.465Z,10.30
2019-03-04T09:22:48.558Z,10.30
2019-03-04T09:25:39.369Z,10.30
2019-03-04T09:28:08.501Z,10.30
2019-03-04T09:30:37.602Z,10.50
2019-03-04T09:33:06.712Z,10.50
2019-03-04T09:35:35.805Z,10.60
2019-03-04T09:38:05.460Z,11.00
2019-03-04T09:40:35.390Z,11.60
2019-03-04T09:43:04.796Z,11.90
2019-03-04T09:45:38.903Z,12.20
2019-03-04T09:48:05.122Z,12.10
2019-03-04T09:50:34.384Z,12.20
2019-03-04T09:53:03.438Z,11.90
2019-03-04T09:55:32.682Z,11.80
2019-03-04T09:58:01.707Z,12.20
2019-03-04T10:00:32.947Z,12.10
2019-03-04T10:03:24.078Z,11.90
2019-03-04T10:06:09.063Z,11.70
2019-03-04T10:08:49.820Z,11.60
2019-03-04T10:12:05.881Z,11.50
2019-03-04T10:15:20.575Z,11.30
2019-03-04T10:18:11.936Z,11.30
2019-03-04T10:21:25.881Z,11.20
2019-03-04T10:24:24.847Z,11.20
2019-03-04T10:27:21.320Z,11.20
2019-03-04T10:30:14.889Z,11.20
2019-03-04T10:33:22.128Z,11.30
2019-03-04T10:36:12.555Z,11.50
2019-03-04T10:38:59.500Z,11.60
2019-03-04T10:41:59.577Z,11.70
2019-03-04T10:45:10.128Z,11.70
2019-03-04T10:47:39.267Z,11.50
2019-03-04T10:50:09.393Z,11.30
2019-03-04T10:52:38.464Z,11.00
2019-03-04T10:55:08.772Z,10.40
2019-03-04T10:57:37.901Z,9.70
2019-03-04T11:00:20.405Z,8.90
2019-03-04T11:02:51.936Z,8.50
2019-03-04T11:05:20.400Z,8.20
2019-03-04T11:07:49.436Z,8.10
2019-03-04T11:10:18.539Z,8.10
2019-03-04T11:12:47.665Z,8.10
2019-03-04T11:15:19.464Z,8.10
2019-03-04T11:17:48.722Z,8.10
2019-03-04T11:20:18.312Z,8.20
2019-03-04T11:22:49.935Z,8.20
2019-03-04T11:25:22.121Z,8.20
2019-03-04T11:27:51.443Z,8.30
2019-03-04T11:30:22.777Z,8.40
2019-03-04T11:32:53.372Z,8.40
2019-03-04T11:35:22.788Z,8.50
2019-03-04T11:37:51.911Z,8.50
2019-03-04T11:40:40.433Z,8.40
2019-03-04T11:43:09.671Z,8.40
2019-03-04T11:45:38.880Z,8.40
2019-03-04T11:48:08.041Z,8.50
2019-03-04T11:50:37.206Z,8.60
2019-03-04T11:53:06.823Z,8.60
2019-03-04T11:55:35.960Z,8.70
2019-03-04T11:58:05.214Z,8.70
2019-03-04T12:00:40.450Z,8.70
2019-03-04T12:03:09.567Z,8.80
2019-03-04T12:05:38.722Z,8.90
2019-03-04T12:08:07.964Z,8.90
2019-03-04T12:10:37.139Z,8.90
2019-03-04T12:13:06.257Z,8.70
2019-03-04T12:15:35.356Z,7.70
2019-03-04T12:18:04.514Z,6.80
2019-03-04T12:20:33.592Z,6.30
2019-03-04T12:23:02.656Z,6.00
2019-03-04T12:25:31.721Z,5.90
2019-03-04T12:28:00.859Z,5.80
2019-03-04T12:30:29.978Z,5.80
2019-03-04T12:32:59.118Z,5.90
2019-03-04T12:35:28.225Z,5.90
2019-03-04T12:37:57.371Z,6.00
2019-03-04T12:40:27.124Z,6.20
2019-03-04T12:42:56.191Z,6.30
2019-03-04T12:45:34.513Z,6.30
2019-03-04T12:47:59.301Z,6.40
2019-03-04T12:50:28.409Z,6.50
2019-03-04T12:52:57.519Z,6.60
2019-03-04T12:55:26.666Z,6.70
2019-03-04T12:57:56.668Z,6.90
2019-03-04T13:00:25.753Z,7.00
2019-03-04T13:02:57.912Z,6.90
2019-03-04T13:05:25.740Z,6.80
2019-03-04T13:07:54.903Z,6.70
2019-03-04T13:10:24.052Z,6.70
2019-03-04T13:12:54.205Z,6.90
2019-03-04T13:15:24.269Z,7.10
2019-03-04T13:17:53.384Z,7.50
2019-03-04T13:20:22.656Z,7.90
2019-03-04T13:22:51.658Z,8.30
2019-03-04T13:25:20.775Z,8.50
2019-03-04T13:27:49.964Z,8.80
2019-03-04T13:30:20.960Z,8.40
2019-03-04T13:32:50.043Z,8.10
2019-03-04T13:35:24.442Z,7.90
2019-03-04T13:37:51.653Z,7.80
2019-03-04T13:40:20.811Z,7.60
2019-03-04T13:42:50.024Z,7.60
2019-03-04T13:45:19.137Z,7.70
2019-03-04T13:47:48.213Z,8.00
2019-03-04T13:50:45.641Z,8.20
2019-03-04T13:53:14.815Z,8.60
2019-03-04T13:55:43.967Z,8.60
2019-03-04T13:58:13.032Z,8.60
2019-03-04T14:00:42.324Z,8.70
2019-03-04T14:03:13.428Z,9.30
2019-03-04T14:05:42.569Z,9.50
2019-03-04T14:08:11.740Z,9.30
2019-03-04T14:10:40.947Z,9.10
2019-03-04T14:13:11.527Z,8.90
2019-03-04T14:15:40.890Z,8.90
2019-03-04T14:18:10.072Z,8.80
2019-03-04T14:20:39.175Z,8.60
2019-03-04T14:23:08.427Z,8.50
2019-03-04T14:25:37.642Z,8.40
2019-03-04T14:28:09.718Z,8.60
2019-03-04T14:30:38.926Z,8.90
2019-03-04T14:33:10.871Z,8.90
2019-03-04T14:35:40.068Z,8.70
2019-03-04T14:38:11.675Z,8.60
2019-03-04T14:40:40.917Z,8.50
2019-03-04T14:43:10.090Z,8.40
2019-03-04T14:45:45.807Z,8.40
2019-03-04T14:48:14.971Z,8.40
2019-03-04T14:50:44.126Z,8.50
2019-03-04T14:53:13.267Z,8.50
2019-03-04T14:55:42.408Z,8.50
2019-03-04T14:58:11.687Z,8.50
2019-03-04T15:00:41.988Z,8.50
2019-03-04T15:03:22.078Z,8.60
2019-03-04T15:05:44.695Z,8.70
2019-03-04T15:08:13.870Z,8.60
2019-03-04T15:10:43.118Z,8.50
2019-03-04T15:13:17.209Z,8.40
2019-03-04T15:15:46.410Z,8.40
2019-03-04T15:18:15.462Z,8.40
2019-03-04T15:20:44.595Z,8.40
2019-03-04T15:23:13.674Z,8.40
2019-03-04T15:25:42.919Z,8.30
2019-03-04T15:28:19.688Z,8.30
2019-03-04T15:30:51.422Z,8.40
2019-03-04T15:33:20.744Z,8.50
2019-03-04T15:35:50.104Z,8.70
2019-03-04T15:38:19.249Z,8.70
2019-03-04T15:40:48.693Z,8.80
2019-03-04T15:43:17.993Z,8.70
2019-03-04T15:45:49.369Z,8.50
2019-03-04T15:48:19.464Z,8.50
2019-03-04T15:50:49.102Z,8.40
2019-03-04T15:53:19.837Z,8.40
2019-03-04T15:55:58.139Z,8.40
2019-03-04T15:58:27.300Z,8.30
2019-03-04T16:00:56.840Z,8.30
2019-03-04T16:03:26.377Z,8.30
2019-03-04T16:05:57.539Z,8.30
2019-03-04T16:08:30.058Z,8.20
2019-03-04T16:10:59.364Z,8.20
2019-03-04T16:13:28.579Z,8.20
2019-03-04T16:15:57.883Z,8.20
2019-03-04T16:18:27.237Z,8.20
2019-03-04T16:21:00.471Z,8.20
2019-03-04T16:23:29.831Z,8.10
2019-03-04T16:26:03.121Z,8.10
2019-03-04T16:28:32.359Z,8.10
2019-03-04T16:31:10.532Z,8.00
2019-03-04T16:33:39.910Z,8.00
2019-03-04T16:36:08.972Z,8.00
2019-03-04T16:38:38.548Z,8.00
2019-03-04T16:41:08.801Z,8.00
2019-03-04T16:43:38.693Z,7.90
2019-03-04T16:46:08.044Z,7.80
2019-03-04T16:48:37.281Z,7.80
2019-03-04T16:51:06.575Z,7.80
2019-03-04T16:53:49.003Z,7.70
2019-03-04T16:56:18.271Z,7.70
2019-03-04T16:58:47.546Z,7.60
2019-03-04T17:01:16.807Z,7.60
2019-03-04T17:03:50.306Z,7.50
2019-03-04T17:06:19.640Z,7.50
2019-03-04T17:08:48.753Z,7.50
2019-03-04T17:11:17.865Z,7.40
2019-03-04T17:13:47.081Z,7.30
2019-03-04T17:16:16.227Z,7.30
2019-03-04T17:18:45.473Z,7.30
2019-03-04T17:21:16.258Z,7.20
2019-03-04T17:23:45.594Z,7.20
2019-03-04T17:26:14.871Z,7.10
2019-03-04T17:28:43.964Z,7.10
2019-03-04T17:31:13.229Z,7.10
2019-03-04T17:33:42.353Z,7.10
2019-03-04T17:36:11.367Z,7.10
2019-03-04T17:38:40.442Z,7.10
2019-03-04T17:41:09.547Z,7.20
2019-03-04T17:43:41.391Z,7.10
2019-03-04T17:46:10.745Z,7.10
2019-03-04T17:48:39.897Z,7.10
2019-03-04T17:51:09.158Z,7.00
2019-03-04T17:53:38.312Z,7.00
2019-03-04T17:56:07.438Z,7.00
2019-03-04T17:58:36.752Z,7.10
2019-03-04T18:01:05.908Z,7.20
2019-03-04T18:03:35.049Z,7.10
2019-03-04T18:06:04.247Z,7.10
2019-03-04T18:08:33.391Z,7.10
2019-03-04T18:11:02.506Z,7.10
2019-03-04T18:13:31.622Z,7.00
2019-03-04T18:16:00.748Z,7.00
2019-03-04T18:18:29.809Z,7.00
2019-03-04T18:20:58.905Z,7.00
2019-03-04T18:23:28.106Z,7.00
2019-03-04T18:26:01.709Z,6.90
2019-03-04T18:29:15.936Z,6.90
2019-03-04T18:32:26.889Z,6.80
2019-03-04T18:35:20.923Z,6.90
2019-03-04T18:38:28.938Z,6.80
2019-03-04T18:41:41.237Z,6.80
2019-03-04T18:44:33.565Z,6.70
2019-03-04T18:47:45.655Z,6.80
2019-03-04T18:50:14.893Z,6.90
2019-03-04T18:52:43.969Z,6.90
2019-03-04T18:55:13.080Z,6.90
2019-03-04T18:57:42.177Z,6.80
2019-03-04T19:00:14.251Z,6.80
2019-03-04T19:02:43.387Z,6.80
2019-03-04T19:05:12.632Z,6.90
2019-03-04T19:07:41.836Z,6.80
2019-03-04T19:10:11.292Z,6.80
2019-03-04T19:12:40.485Z,6.70
2019-03-04T19:15:09.749Z,6.70
2019-03-04T19:17:39.048Z,6.80
2019-03-04T19:20:10.859Z,6.70
2019-03-04T19:22:40.189Z,6.70
2019-03-04T19:25:09.405Z,6.70
2019-03-04T19:27:38.503Z,6.70
2019-03-04T19:30:08.558Z,6.60
2019-03-04T19:32:38.657Z,6.60
2019-03-04T19:35:07.876Z,6.60
2019-03-04T19:37:37.507Z,6.60
2019-03-04T19:40:07.221Z,6.60
2019-03-04T19:42:36.701Z,6.50
2019-03-04T19:45:07.832Z,6.50
2019-03-04T19:47:37.766Z,6.60
2019-03-04T19:50:07.711Z,6.50
2019-03-04T19:52:37.014Z,6.60
2019-03-04T19:55:08.040Z,6.60
2019-03-04T19:57:37.624Z,6.60
2019-03-04T20:00:08.626Z,6.60
2019-03-04T20:02:39.582Z,6.60
2019-03-04T20:05:10.307Z,6.60
2019-03-04T20:07:40.138Z,6.60
2019-03-04T20:10:09.818Z,6.60
2019-03-04T20:12:39.239Z,6.60
2019-03-04T20:15:16.318Z,6.60
2019-03-04T20:17:45.517Z,6.60
2019-03-04T20:20:14.979Z,6.60
2019-03-04T20:22:44.182Z,6.60
2019-03-04T20:25:13.514Z,6.70
2019-03-04T20:27:42.748Z,6.70
2019-03-04T20:30:12.233Z,6.70
2019-03-04T20:32:41.730Z,6.80
2019-03-04T20:35:11.410Z,6.80
2019-03-04T20:37:45.655Z,6.80
2019-03-04T20:40:14.825Z,6.80
2019-03-04T20:42:44.278Z,6.80
2019-03-04T20:45:15.029Z,6.70
2019-03-04T20:47:44.321Z,6.80
2019-03-04T20:50:16.664Z,6.80
2019-03-04T20:52:46.053Z,6.80
2019-03-04T20:55:15.805Z,6.80
2019-03-04T20:57:45.603Z,6.80
2019-03-04T21:00:33.038Z,6.70
2019-03-04T21:03:03.475Z,6.60
2019-03-04T21:05:34.633Z,6.60
2019-03-04T21:08:04.330Z,6.50
2019-03-04T21:10:33.887Z,6.50
2019-03-04T21:13:11.229Z,6.50
2019-03-04T21:15:42.692Z,6.50
2019-03-04T21:18:12.192Z,6.50
2019-03-04T21:20:41.552Z,6.50
2019-03-04T21:23:10.942Z,6.60
2019-03-04T21:26:00.543Z,6.60
2019-03-04T21:28:40.897Z,6.60
2019-03-04T21:32:03.504Z,6.60
2019-03-04T21:35:04.353Z,6.70
2019-03-04T21:37:42.855Z,6.60
2019-03-04T21:40:16.529Z,6.60
2019-03-04T21:43:01.076Z,6.60
2019-03-04T21:46:26.485Z,6.60
2019-03-04T21:49:03.381Z,6.60
2019-03-04T21:51:46.882Z,6.50
2019-03-04T21:54:16.078Z,6.50
2019-03-04T21:57:02.397Z,6.60
2019-03-04T21:59:31.599Z,6.50
2019-03-04T22:02:16.200Z,6.50
2019-03-04T22:04:45.397Z,6.60
2019-03-04T22:07:16.127Z,6.60
2019-03-04T22:09:45.167Z,6.70
2019-03-04T22:12:14.589Z,6.60
2019-03-04T22:14:43.950Z,6.60
2019-03-04T22:17:13.089Z,6.60
2019-03-04T22:19:42.332Z,6.50
2019-03-04T22:22:11.479Z,6.50
2019-03-04T22:24:40.512Z,6.50
2019-03-04T22:27:09.653Z,6.40
2019-03-04T22:29:38.682Z,6.40
2019-03-04T22:32:07.819Z,6.50
2019-03-04T22:34:36.912Z,6.50
2019-03-04T22:37:06.125Z,6.60
2019-03-04T22:39:35.303Z,6.70
2019-03-04T22:42:04.381Z,6.70
2019-03-04T22:44:33.580Z,6.50
2019-03-04T22:47:02.739Z,6.20
2019-03-04T22:49:31.890Z,6.00
2019-03-04T22:52:01.094Z,5.90
2019-03-04T22:54:30.284Z,5.80
2019-03-04T22:56:59.527Z,5.70
2019-03-04T22:59:28.732Z,5.70
2019-03-04T23:02:04.559Z,5.70
2019-03-04T23:05:03.639Z,5.60
2019-03-04T23:07:35.361Z,5.70
2019-03-04T23:10:37.345Z,5.70
2019-03-04T23:13:36.491Z,5.70
2019-03-04T23:16:06.856Z,5.80
2019-03-04T23:18:37.022Z,5.80
2019-03-04T23:21:06.637Z,5.80
2019-03-04T23:23:35.937Z,5.70
2019-03-04T23:26:05.138Z,5.70
2019-03-04T23:28:34.207Z,5.70
2019-03-04T23:31:03.305Z,5.60
2019-03-04T23:33:32.497Z,5.60
2019-03-04T23:36:01.652Z,5.50
2019-03-04T23:38:30.705Z,5.40
2019-03-04T23:40:59.815Z,5.40
2019-03-04T23:43:28.896Z,5.40
2019-03-04T23:45:58.005Z,5.40
2019-03-04T23:48:27.098Z,5.40
2019-03-04T23:50:56.632Z,5.40
2019-03-04T23:53:25.952Z,5.50
2019-03-04T23:55:55.111Z,5.50
2019-03-04T23:58:24.197Z,5.50
